Terminal Aerodrome Forecast
Issued by NWS

Current Version | Previous Version | Text Only | Print | Product List | Glossary On
Versions: 1 2 3 4 5 6 7 8 9 10 11 12 13 14 15 16 17 18 19 20 21 22 23 24 25 26 27 28
000
FTUS43 KIND 200521
TAFBMG
TAF
KBMG 200521Z 2006/2106 12004KT 4SM SHRA BR OVC003
     FM200900 20004KT 2SM SHRA BR OVC003
     FM201100 22005KT 1/4SM FG VCSH OVC003
     FM201500 22006KT 3/4SM BR VCSH OVC003
     FM201800 21007KT 5SM BR OVC003
     FM202200 19006KT 6SM BR OVC010
      AMD LTD TO CLD VIS AND WIND TIL 201400=

USA.gov is the U.S. government's official web portal to all federal, state and local government web resources and services.